sensor_id;sensor_type;location;lat;lon;timestamp;pressure;altitude;pressure_sealevel;temperature;humidity
34712;BME280;20941;42.408;25.634;2023-11-19T15:59:48;99370.34;;;7.66;62.14
34712;BME280;20941;42.408;25.634;2023-11-19T16:02:14;99356.50;;;7.50;62.67
34712;BME280;20941;42.408;25.634;2023-11-19T16:04:41;99399.53;;;7.60;62.76
34712;BME280;20941;42.408;25.634;2023-11-19T16:07:06;99401.31;;;7.45;62.96
34712;BME280;20941;42.408;25.634;2023-11-19T16:09:32;99381.84;;;7.35;63.04
34712;BME280;20941;42.408;25.634;2023-11-19T16:11:58;99406.06;;;7.50;63.01
34712;BME280;20941;42.408;25.634;2023-11-19T16:14:24;99403.50;;;7.53;63.01
34712;BME280;20941;42.408;25.634;2023-11-19T16:16:50;99365.75;;;7.21;63.29
34712;BME280;20941;42.408;25.634;2023-11-19T16:19:16;99393.97;;;7.25;62.91
34712;BME280;20941;42.408;25.634;2023-11-19T16:21:43;99403.81;;;7.17;63.52
34712;BME280;20941;42.408;25.634;2023-11-19T16:24:08;99416.97;;;7.17;64.17
34712;BME280;20941;42.408;25.634;2023-11-19T16:26:34;99395.84;;;7.00;64.08
34712;BME280;20941;42.408;25.634;2023-11-19T16:29:02;99417.25;;;7.15;64.06
34712;BME280;20941;42.408;25.634;2023-11-19T16:31:28;99431.72;;;7.28;64.26
34712;BME280;20941;42.408;25.634;2023-11-19T16:33:53;99422.25;;;7.18;63.63
34712;BME280;20941;42.408;25.634;2023-11-19T16:36:20;99410.00;;;7.14;63.91
34712;BME280;20941;42.408;25.634;2023-11-19T16:38:45;99423.09;;;7.19;64.11
34712;BME280;20941;42.408;25.634;2023-11-19T16:41:17;99437.88;;;7.25;64.06
34712;BME280;20941;42.408;25.634;2023-11-19T16:43:45;99420.84;;;7.21;64.70
34712;BME280;20941;42.408;25.634;2023-11-19T16:46:10;99381.56;;;7.02;64.12
34712;BME280;20941;42.408;25.634;2023-11-19T16:48:36;99406.69;;;7.07;65.07
34712;BME280;20941;42.408;25.634;2023-11-19T16:51:09;99404.97;;;7.11;65.30
34712;BME280;20941;42.408;25.634;2023-11-19T16:53:43;99404.69;;;7.13;64.16
34712;BME280;20941;42.408;25.634;2023-11-19T16:56:09;99389.28;;;7.15;63.92
34712;BME280;20941;42.408;25.634;2023-11-19T16:58:34;99390.31;;;7.25;63.12
34712;BME280;20941;42.408;25.634;2023-11-19T17:01:01;99360.19;;;7.16;62.60
34712;BME280;20941;42.408;25.634;2023-11-19T17:03:26;99366.75;;;7.31;62.43
34712;BME280;20941;42.408;25.634;2023-11-19T17:05:52;99377.13;;;7.30;62.86
34712;BME280;20941;42.408;25.634;2023-11-19T17:08:17;99401.56;;;7.49;63.46
34712;BME280;20941;42.408;25.634;2023-11-19T17:10:44;99396.28;;;7.47;62.54
34712;BME280;20941;42.408;25.634;2023-11-19T17:13:10;99384.03;;;7.43;63.08
34712;BME280;20941;42.408;25.634;2023-11-19T17:15:37;99379.81;;;7.41;63.37
34712;BME280;20941;42.408;25.634;2023-11-19T17:18:03;99390.69;;;7.47;62.81
34712;BME280;20941;42.408;25.634;2023-11-19T17:20:30;99377.25;;;7.49;62.47
34712;BME280;20941;42.408;25.634;2023-11-19T17:22:55;99400.84;;;7.67;61.75
34712;BME280;20941;42.408;25.634;2023-11-19T17:25:21;99404.06;;;7.80;60.99
34712;BME280;20941;42.408;25.634;2023-11-19T17:27:48;99354.63;;;7.70;60.29
34712;BME280;20941;42.408;25.634;2023-11-19T17:30:14;99363.97;;;7.84;59.41
34712;BME280;20941;42.408;25.634;2023-11-19T17:32:39;99362.28;;;7.89;59.43
34712;BME280;20941;42.408;25.634;2023-11-19T17:35:06;99370.41;;;8.09;58.57
34712;BME280;20941;42.408;25.634;2023-11-19T17:37:32;99363.41;;;8.12;58.19
34712;BME280;20941;42.408;25.634;2023-11-19T17:39:57;99384.00;;;8.21;58.75
34712;BME280;20941;42.408;25.634;2023-11-19T17:42:23;99377.84;;;8.19;58.96
34712;BME280;20941;42.408;25.634;2023-11-19T17:44:49;99384.97;;;8.11;60.44
34712;BME280;20941;42.408;25.634;2023-11-19T17:47:14;99313.31;;;7.62;61.04
34712;BME280;20941;42.408;25.634;2023-11-19T17:49:40;99386.53;;;7.98;60.88
34712;BME280;20941;42.408;25.634;2023-11-19T17:52:06;99371.91;;;7.77;62.08
34712;BME280;20941;42.408;25.634;2023-11-19T17:54:32;99380.63;;;7.46;65.02
34712;BME280;20941;42.408;25.634;2023-11-19T17:56:58;99410.81;;;7.15;67.40
34712;BME280;20941;42.408;25.634;2023-11-19T17:59:24;99411.72;;;7.10;68.08
34712;BME280;20941;42.408;25.634;2023-11-19T18:01:51;99412.31;;;7.02;68.45
34712;BME280;20941;42.408;25.634;2023-11-19T18:04:23;99407.94;;;6.85;68.38
34712;BME280;20941;42.408;25.634;2023-11-19T18:06:49;99416.88;;;6.87;69.13
34712;BME280;20941;42.408;25.634;2023-11-19T18:09:14;99404.69;;;6.73;69.49
34712;BME280;20941;42.408;25.634;2023-11-19T18:11:40;99394.72;;;6.56;70.04
34712;BME280;20941;42.408;25.634;2023-11-19T18:14:06;99416.28;;;6.46;71.56
34712;BME280;20941;42.408;25.634;2023-11-19T18:16:34;99386.47;;;6.31;71.35
34712;BME280;20941;42.408;25.634;2023-11-19T18:19:00;99378.97;;;6.26;71.32
34712;BME280;20941;42.408;25.634;2023-11-19T18:21:26;99386.25;;;6.17;71.94
34712;BME280;20941;42.408;25.634;2023-11-19T18:23:52;99393.28;;;6.09;72.14
34712;BME280;20941;42.408;25.634;2023-11-19T18:26:18;99359.28;;;5.86;72.13
34712;BME280;20941;42.408;25.634;2023-11-19T18:28:43;99357.88;;;5.78;72.44
34712;BME280;20941;42.408;25.634;2023-11-19T18:31:10;99382.75;;;5.80;73.63
34712;BME280;20941;42.408;25.634;2023-11-19T18:33:36;99351.56;;;5.52;74.36
34712;BME280;20941;42.408;25.634;2023-11-19T18:36:02;99385.56;;;5.65;74.31
34712;BME280;20941;42.408;25.634;2023-11-19T18:38:29;99376.41;;;5.43;75.54
34712;BME280;20941;42.408;25.634;2023-11-19T18:40:54;99394.25;;;5.32;76.59
34712;BME280;20941;42.408;25.634;2023-11-19T18:43:21;99402.63;;;5.11;78.18
34712;BME280;20941;42.408;25.634;2023-11-19T18:45:47;99379.50;;;5.06;78.25
34712;BME280;20941;42.408;25.634;2023-11-19T18:48:12;99387.56;;;5.07;78.02
34712;BME280;20941;42.408;25.634;2023-11-19T18:50:38;99394.56;;;5.15;78.10
34712;BME280;20941;42.408;25.634;2023-11-19T18:53:04;99390.63;;;5.06;78.47
34712;BME280;20941;42.408;25.634;2023-11-19T18:55:29;99410.72;;;5.13;78.83
34712;BME280;20941;42.408;25.634;2023-11-19T18:57:55;99403.47;;;5.02;79.10
34712;BME280;20941;42.408;25.634;2023-11-19T19:00:20;99365.81;;;4.78;79.15
34712;BME280;20941;42.408;25.634;2023-11-19T19:02:46;99402.34;;;4.92;79.46
34712;BME280;20941;42.408;25.634;2023-11-19T19:05:15;99386.16;;;4.79;79.66
34712;BME280;20941;42.408;25.634;2023-11-19T19:07:42;99383.63;;;4.67;80.01
34712;BME280;20941;42.408;25.634;2023-11-19T19:10:09;99412.06;;;4.74;81.23
34712;BME280;20941;42.408;25.634;2023-11-19T19:12:42;99402.81;;;4.58;81.69
34712;BME280;20941;42.408;25.634;2023-11-19T19:15:11;99432.94;;;4.77;81.75
34712;BME280;20941;42.408;25.634;2023-11-19T19:17:37;99422.31;;;4.53;82.01
34712;BME280;20941;42.408;25.634;2023-11-19T19:20:03;99434.63;;;4.68;82.45
34712;BME280;20941;42.408;25.634;2023-11-19T19:22:29;99437.41;;;4.73;83.05
34712;BME280;20941;42.408;25.634;2023-11-19T19:24:55;99406.72;;;4.52;82.91
34712;BME280;20941;42.408;25.634;2023-11-19T19:27:21;99411.19;;;4.53;83.55
34712;BME280;20941;42.408;25.634;2023-11-19T19:29:47;99432.13;;;4.66;84.46
34712;BME280;20941;42.408;25.634;2023-11-19T19:32:13;99422.06;;;4.60;84.94
34712;BME280;20941;42.408;25.634;2023-11-19T19:34:39;99430.13;;;4.56;85.47
34712;BME280;20941;42.408;25.634;2023-11-19T19:37:04;99439.84;;;4.54;86.17
34712;BME280;20941;42.408;25.634;2023-11-19T19:39:31;99431.25;;;4.55;86.50
34712;BME280;20941;42.408;25.634;2023-11-19T19:41:57;99440.72;;;4.59;86.48
34712;BME280;20941;42.408;25.634;2023-11-19T19:44:23;99426.78;;;4.59;86.62
34712;BME280;20941;42.408;25.634;2023-11-19T19:46:50;99432.94;;;4.56;86.33
34712;BME280;20941;42.408;25.634;2023-11-19T19:49:16;99413.91;;;4.38;86.66
34712;BME280;20941;42.408;25.634;2023-11-19T19:51:41;99399.94;;;4.22;86.74
34712;BME280;20941;42.408;25.634;2023-11-19T19:54:07;99399.88;;;4.12;86.58
34712;BME280;20941;42.408;25.634;2023-11-19T19:56:33;99417.19;;;4.19;86.14
34712;BME280;20941;42.408;25.634;2023-11-19T19:58:59;99425.53;;;4.14;85.86
34712;BME280;20941;42.408;25.634;2023-11-19T20:01:25;99426.56;;;3.97;86.38
34712;BME280;20941;42.408;25.634;2023-11-19T20:03:51;99425.28;;;3.73;88.86
34712;BME280;20941;42.408;25.634;2023-11-19T20:06:17;99443.69;;;3.79;89.09
34712;BME280;20941;42.408;25.634;2023-11-19T20:08:47;99445.28;;;3.64;89.96
34712;BME280;20941;42.408;25.634;2023-11-19T20:11:16;99453.56;;;3.59;91.28
34712;BME280;20941;42.408;25.634;2023-11-19T20:13:41;99439.41;;;3.61;90.97
34712;BME280;20941;42.408;25.634;2023-11-19T20:16:09;99417.91;;;3.46;90.88
34712;BME280;20941;42.408;25.634;2023-11-19T20:18:35;99450.25;;;3.57;91.43
34712;BME280;20941;42.408;25.634;2023-11-19T20:21:01;99426.00;;;3.52;92.40
34712;BME280;20941;42.408;25.634;2023-11-19T20:23:33;99395.50;;;3.25;92.32
34712;BME280;20941;42.408;25.634;2023-11-19T20:25:59;99396.97;;;3.33;93.19
34712;BME280;20941;42.408;25.634;2023-11-19T20:28:25;99420.13;;;3.49;94.27
34712;BME280;20941;42.408;25.634;2023-11-19T20:30:51;99415.97;;;3.46;93.93
34712;BME280;20941;42.408;25.634;2023-11-19T20:33:16;99400.88;;;3.37;93.37
34712;BME280;20941;42.408;25.634;2023-11-19T20:35:42;99389.69;;;3.27;93.28
34712;BME280;20941;42.408;25.634;2023-11-19T20:38:08;99399.72;;;3.33;92.83
34712;BME280;20941;42.408;25.634;2023-11-19T20:40:33;99396.59;;;3.19;93.02
34712;BME280;20941;42.408;25.634;2023-11-19T20:42:59;99375.91;;;3.04;94.14
34712;BME280;20941;42.408;25.634;2023-11-19T20:45:25;99414.97;;;3.25;94.46
34712;BME280;20941;42.408;25.634;2023-11-19T20:47:53;99403.84;;;3.25;95.25
34712;BME280;20941;42.408;25.634;2023-11-19T20:50:19;99410.59;;;3.40;95.53
34712;BME280;20941;42.408;25.634;2023-11-19T20:52:47;99421.72;;;3.40;95.46
34712;BME280;20941;42.408;25.634;2023-11-19T20:55:15;99413.34;;;3.34;95.77
34712;BME280;20941;42.408;25.634;2023-11-19T20:57:41;99425.63;;;3.39;95.97
34712;BME280;20941;42.408;25.634;2023-11-19T21:00:07;99417.81;;;3.35;95.45
34712;BME280;20941;42.408;25.634;2023-11-19T21:02:34;99392.63;;;3.15;95.70
34712;BME280;20941;42.408;25.634;2023-11-19T21:04:59;99419.97;;;3.28;95.54
34712;BME280;20941;42.408;25.634;2023-11-19T21:07:25;99423.34;;;3.30;96.22
34712;BME280;20941;42.408;25.634;2023-11-19T21:09:52;99415.78;;;3.26;96.38
34712;BME280;20941;42.408;25.634;2023-11-19T21:12:18;99373.31;;;2.98;96.45
34712;BME280;20941;42.408;25.634;2023-11-19T21:14:45;99385.91;;;3.05;96.64
34712;BME280;20941;42.408;25.634;2023-11-19T21:17:11;99396.75;;;3.07;97.42
34712;BME280;20941;42.408;25.634;2023-11-19T21:19:37;99376.97;;;2.98;98.23
34712;BME280;20941;42.408;25.634;2023-11-19T21:22:02;99351.22;;;2.81;99.39
34712;BME280;20941;42.408;25.634;2023-11-19T21:24:29;99377.56;;;3.05;99.85
34712;BME280;20941;42.408;25.634;2023-11-19T21:26:55;99366.94;;;2.97;99.35
34712;BME280;20941;42.408;25.634;2023-11-19T21:29:21;99390.97;;;3.14;99.22
34712;BME280;20941;42.408;25.634;2023-11-19T21:31:46;99353.50;;;2.84;99.36
34712;BME280;20941;42.408;25.634;2023-11-19T21:34:12;99384.50;;;3.03;99.54
34712;BME280;20941;42.408;25.634;2023-11-19T21:36:37;99358.53;;;2.87;100.00
34712;BME280;20941;42.408;25.634;2023-11-19T21:39:04;99385.03;;;3.00;99.97
34712;BME280;20941;42.408;25.634;2023-11-19T21:41:31;99374.66;;;2.90;99.85
34712;BME280;20941;42.408;25.634;2023-11-19T21:43:57;99350.69;;;2.79;99.48
34712;BME280;20941;42.408;25.634;2023-11-19T21:46:22;99400.31;;;3.02;99.01
34712;BME280;20941;42.408;25.634;2023-11-19T21:48:48;99377.16;;;2.92;98.79
34712;BME280;20941;42.408;25.634;2023-11-19T21:51:13;99399.50;;;3.02;98.28
34712;BME280;20941;42.408;25.634;2023-11-19T21:53:39;99406.47;;;3.04;97.61
34712;BME280;20941;42.408;25.634;2023-11-19T21:56:05;99394.16;;;2.95;97.72
34712;BME280;20941;42.408;25.634;2023-11-19T21:58:31;99399.66;;;2.90;96.70
34712;BME280;20941;42.408;25.634;2023-11-19T22:00:57;99330.28;;;2.35;96.21
34712;BME280;20941;42.408;25.634;2023-11-19T22:03:23;99370.19;;;2.56;96.44
34712;BME280;20941;42.408;25.634;2023-11-19T22:05:49;99393.78;;;2.54;96.57
34712;BME280;20941;42.408;25.634;2023-11-19T22:08:18;99398.69;;;2.47;98.05
34712;BME280;20941;42.408;25.634;2023-11-19T22:10:44;99392.19;;;2.36;99.77
34712;BME280;20941;42.408;25.634;2023-11-19T22:13:10;99380.53;;;2.39;100.00
34712;BME280;20941;42.408;25.634;2023-11-19T22:15:35;99391.66;;;2.39;99.78
34712;BME280;20941;42.408;25.634;2023-11-19T22:18:01;99381.28;;;2.29;99.39
34712;BME280;20941;42.408;25.634;2023-11-19T22:20:26;99350.28;;;2.10;98.92
34712;BME280;20941;42.408;25.634;2023-11-19T22:22:56;99407.66;;;2.32;99.33
34712;BME280;20941;42.408;25.634;2023-11-19T22:25:22;99407.25;;;2.18;99.88
34712;BME280;20941;42.408;25.634;2023-11-19T22:27:51;99372.75;;;2.08;100.00
34712;BME280;20941;42.408;25.634;2023-11-19T22:30:16;99407.38;;;2.28;100.00
34712;BME280;20941;42.408;25.634;2023-11-19T22:32:42;99382.81;;;2.15;100.00
34712;BME280;20941;42.408;25.634;2023-11-19T22:35:08;99371.41;;;1.89;99.66
34712;BME280;20941;42.408;25.634;2023-11-19T22:37:33;99367.44;;;1.85;100.00
34712;BME280;20941;42.408;25.634;2023-11-19T22:39:59;99392.34;;;2.02;99.72
34712;BME280;20941;42.408;25.634;2023-11-19T22:42:25;99395.88;;;1.75;100.00
34712;BME280;20941;42.408;25.634;2023-11-19T22:44:51;99372.81;;;1.69;100.00
34712;BME280;20941;42.408;25.634;2023-11-19T22:47:16;99392.94;;;1.82;100.00
34712;BME280;20941;42.408;25.634;2023-11-19T22:49:42;99392.84;;;1.76;100.00
34712;BME280;20941;42.408;25.634;2023-11-19T22:52:07;99368.53;;;1.62;99.89
34712;BME280;20941;42.408;25.634;2023-11-19T22:54:33;99374.47;;;1.70;100.00
34712;BME280;20941;42.408;25.634;2023-11-19T22:56:59;99360.38;;;1.72;100.00
34712;BME280;20941;42.408;25.634;2023-11-19T22:59:24;99355.75;;;1.60;100.00
34712;BME280;20941;42.408;25.634;2023-11-19T23:01:50;99371.78;;;1.75;100.00
34712;BME280;20941;42.408;25.634;2023-11-19T23:04:15;99383.31;;;1.89;100.00
34712;BME280;20941;42.408;25.634;2023-11-19T23:06:44;99381.44;;;1.95;100.00
34712;BME280;20941;42.408;25.634;2023-11-19T23:09:09;99389.84;;;2.00;100.00
34712;BME280;20941;42.408;25.634;2023-11-19T23:11:35;99386.34;;;2.10;100.00
34712;BME280;20941;42.408;25.634;2023-11-19T23:14:01;99362.16;;;2.05;100.00
34712;BME280;20941;42.408;25.634;2023-11-19T23:16:27;99393.09;;;2.19;100.00
34712;BME280;20941;42.408;25.634;2023-11-19T23:18:52;99358.88;;;2.08;100.00
34712;BME280;20941;42.408;25.634;2023-11-19T23:21:18;99360.94;;;2.18;100.00
34712;BME280;20941;42.408;25.634;2023-11-19T23:23:44;99366.88;;;2.32;100.00
34712;BME280;20941;42.408;25.634;2023-11-19T23:26:11;99363.56;;;2.35;100.00
34712;BME280;20941;42.408;25.634;2023-11-19T23:28:42;99343.78;;;2.27;100.00
34712;BME280;20941;42.408;25.634;2023-11-19T23:31:11;99365.44;;;2.52;99.71
34712;BME280;20941;42.408;25.634;2023-11-19T23:33:37;99365.16;;;2.53;99.45
34712;BME280;20941;42.408;25.634;2023-11-19T23:36:03;99380.56;;;2.66;99.23
34712;BME280;20941;42.408;25.634;2023-11-19T23:38:29;99342.00;;;2.43;98.26
34712;BME280;20941;42.408;25.634;2023-11-19T23:40:55;99382.72;;;2.59;97.77
34712;BME280;20941;42.408;25.634;2023-11-19T23:43:21;99370.28;;;2.67;97.18
34712;BME280;20941;42.408;25.634;2023-11-19T23:45:46;99344.78;;;2.70;95.98
34712;BME280;20941;42.408;25.634;2023-11-19T23:48:12;99354.88;;;2.81;94.50
34712;BME280;20941;42.408;25.634;2023-11-19T23:50:38;99333.44;;;2.77;94.05
34712;BME280;20941;42.408;25.634;2023-11-19T23:53:04;99336.53;;;2.80;92.62
34712;BME280;20941;42.408;25.634;2023-11-19T23:55:34;99339.31;;;2.80;91.56
34712;BME280;20941;42.408;25.634;2023-11-19T23:58:00;99318.91;;;2.64;90.35
